EST,Max TemperatureF,Mean TemperatureF,Min TemperatureF,Max Dew PointF,MeanDew PointF,Min DewpointF,Max Humidity, Mean Humidity, Min Humidity, Max Sea Level PressureIn, Mean Sea Level PressureIn, Min Sea Level PressureIn, Max VisibilityMiles, Mean VisibilityMiles, Min VisibilityMiles, Max Wind SpeedMPH, Mean Wind SpeedMPH, Max Gust SpeedMPH,PrecipitationIn, CloudCover, Events, WindDirDegrees
2013-1-1,31,16,0,27,14,-4,92,80,66,30.06,29.96,29.84,10,9,2,21,9,25,0.00,7,Rain-Snow,310
2013-1-2,24,12,0,19,10,-4,93,80,63,30.24,30.09,29.96,10,8,2,17,5,,0.00,8,Snow,308
2013-1-3,27,20,12,21,15,8,92,81,69,30.23,30.10,29.98,10,7,1,14,3,,0.00,8,Snow,222
2013-1-4,32,29,26,22,19,15,80,67,54,30.04,29.99,29.92,10,10,10,22,11,23,0.00,6,Snow,252
2013-1-5,32,28,23,23,21,17,78,70,59,30.32,30.19,30.05,10,10,10,17,11,,0.00,7,Snow,267
2013-1-6,36,32,29,30,25,20,92,76,67,30.12,30.02,29.94,10,9,6,14,9,,0.00,8,Rain-Snow,206
2013-1-7,32,26,21,30,22,17,96,83,69,30.40,30.30,30.09,10,9,2,17,8,23,0.00,5,Rain-Snow,328
2013-1-8,37,30,21,21,19,17,85,68,47,30.37,30.32,30.24,10,10,10,10,6,,0.00,0,,136
2013-1-9,45,32,18,32,23,15,89,69,47,30.35,30.22,30.05,10,10,10,29,10,40,0.00,3,,177
2013-1-10,36,32,27,27,25,24,100,73,63,30.59,30.53,30.35,10,10,10,21,12,34,0.00,5,,343
2013-1-11,37,34,30,36,30,23,100,81,60,30.47,30.21,30.03,10,10,7,18,11,32,0.04,6,Rain,151
2013-1-12,48,42,37,37,37,37,100,100,100,30.11,30.08,30.04,10,9,6,10,8,,0.00,5,,148
2013-1-13,55,47,39,,,,,,,30.06,29.96,29.88,10,8,1,23,9,26,0.00,4,,146
2013-1-14,51,40,28,28,22,19,75,66,60,30.37,30.13,29.84,10,10,5,20,9,25,0.00,7,Rain,326
2013-1-15,31,28,24,21,20,18,85,71,59,30.40,30.33,30.22,10,10,10,6,3,,0.00,5,,344
2013-1-16,32,29,26,28,25,19,93,86,69,30.19,29.96,29.80,10,7,2,10,5,,0.03,6,Snow,167
2013-1-17,32,24,17,27,19,12,86,77,68,30.18,30.07,29.92,10,8,2,16,8,22,0.00,8,Snow,313
2013-1-18,25,17,10,13,9,3,92,72,46,30.43,30.28,30.09,10,7,2,18,7,26,0.00,7,Snow,300
2013-1-19,47,36,26,24,17,10,51,42,36,30.17,29.98,29.72,10,10,10,18,11,22,0.00,3,,185
2013-1-20,44,32,19,34,17,8,88,57,45,30.07,29.82,29.52,10,10,4,29,15,37,0.00,6,Rain-Snow,265
2013-1-21,22,18,15,18,11,3,93,76,52,30.08,29.92,29.81,10,6,0,21,8,,0.00,8,Snow,281
2013-1-22,12,8,3,0,-4,-10,73,58,44,30.19,30.04,29.84,10,10,2,20,14,26,0.00,4,Snow,278
2013-1-23,11,4,-2,1,-4,-9,83,70,56,30.23,30.18,30.10,10,9,2,15,8,21,0.00,4,Snow,295
2013-1-24,13,4,-5,3,-2,-11,84,74,56,30.53,30.31,30.06,10,8,1,21,8,28,0.00,6,Snow,351
2013-1-25,15,10,5,9,5,1,87,78,59,30.48,30.24,30.02,10,6,1,10,5,,0.00,8,Snow,294
2013-1-26,17,9,1,9,4,-3,92,82,59,30.42,30.21,30.02,10,7,2,8,2,,0.00,6,Snow,340
2013-1-27,24,12,1,14,9,-4,92,80,60,30.58,30.47,30.34,10,8,2,8,2,,0.00,5,Snow,28
2013-1-28,37,29,21,36,26,10,97,83,59,30.41,30.10,29.91,10,7,1,16,9,24,0.02,8,Rain-Snow,167
2013-1-29,48,41,34,47,39,34,100,96,86,30.09,29.99,29.90,10,4,0,13,5,,0.12,8,Fog-Rain,227
2013-1-30,59,54,48,53,49,46,93,86,80,29.85,29.53,29.16,10,9,5,26,17,32,0.19,5,Rain,166
2013-1-31,53,38,23,51,27,9,94,72,49,29.71,29.35,29.03,10,9,3,29,16,39,0.32,7,Rain-Snow,255